Time;durP1;ratioP1;P1;durP2;ratioP2;P2;SDS_P1;SDS_P2;PMS_P1;PMS_P2;Temp;Humidity;BMP_temperature;BMP_pressure;BME280_temperature;BME280_humidity;BME280_pressure;Samples;Min_cycle;Max_cycle;Signal;HPM_P1;HPM_P2
2024/01/23 00:00:44;;;;;;;8.70;5.27;;;;;;;;;;6344178;27;20022;-88
2024/01/23 00:03:45;;;;;;;7.90;5.23;;;;;;;;;;6344469;28;20020;-87
2024/01/23 00:06:45;;;;;;;8.57;4.83;;;;;;;;;;6341953;28;20055;-88
2024/01/23 00:09:45;;;;;;;7.23;4.97;;;;;;;;;;6342783;28;20019;-87
2024/01/23 00:12:45;;;;;;;7.37;5.47;;;;;;;;;;6339516;28;20032;-88
2024/01/23 00:15:46;;;;;;;8.07;5.37;;;;;;;;;;6344249;28;20094;-88
2024/01/23 00:18:46;;;;;;;8.70;5.07;;;;;;;;;;6342877;28;20020;-87
2024/01/23 00:21:47;;;;;;;8.13;4.97;;;;;;;;;;6343506;28;20073;-89
2024/01/23 00:24:47;;;;;;;7.60;5.17;;;;;;;;;;6340780;28;20448;-86
2024/01/23 00:27:47;;;;;;;8.83;5.67;;;;;;;;;;6343388;28;20020;-87
2024/01/23 00:30:47;;;;;;;8.00;5.60;;;;;;;;;;6342336;28;20058;-87
2024/01/23 00:33:48;;;;;;;7.43;5.10;;;;;;;;;;6344002;28;20028;-88
2024/01/23 00:36:48;;;;;;;6.47;4.93;;;;;;;;;;6342305;28;20055;-88
2024/01/23 00:39:50;;;;;;;8.23;5.07;;;;;;;;;;6341434;28;20039;-88
2024/01/23 00:42:50;;;;;;;8.35;5.60;;;;;;;;;;6343452;28;20023;-88
2024/01/23 00:45:50;;;;;;;8.43;5.37;;;;;;;;;;6342519;28;20055;-88
2024/01/23 00:48:51;;;;;;;8.87;5.80;;;;;;;;;;6329807;28;20475;-88
2024/01/23 00:51:51;;;;;;;9.00;5.20;;;;;;;;;;6342703;28;20027;-88
2024/01/23 00:54:51;;;;;;;6.60;4.73;;;;;;;;;;6343272;28;20024;-89
2024/01/23 00:57:51;;;;;;;7.70;5.30;;;;;;;;;;6344108;28;20031;-89
2024/01/23 01:00:52;;;;;;;8.20;5.47;;;;;;;;;;6342481;28;20023;-87
2024/01/23 01:03:52;;;;;;;9.10;5.20;;;;;;;;;;6342964;28;20059;-88
2024/01/23 01:06:52;;;;;;;8.63;5.40;;;;;;;;;;6335840;28;20496;-87
2024/01/23 01:09:53;;;;;;;8.50;5.53;;;;;;;;;;6328114;28;20100;-88
2024/01/23 01:12:53;;;;;;;8.00;5.60;;;;;;;;;;6332897;28;20487;-88
2024/01/23 01:15:53;;;;;;;7.93;5.47;;;;;;;;;;6343456;28;20011;-88
2024/01/23 01:18:53;;;;;;;7.93;5.53;;;;;;;;;;6341387;28;20019;-88
2024/01/23 01:21:54;;;;;;;8.03;5.77;;;;;;;;;;6341962;28;20468;-88
2024/01/23 01:24:54;;;;;;;9.27;5.80;;;;;;;;;;6340303;28;20052;-88
2024/01/23 01:27:54;;;;;;;8.23;5.07;;;;;;;;;;6341972;28;20027;-80
2024/01/23 01:30:55;;;;;;;9.23;5.63;;;;;;;;;;6324415;28;20097;-80
2024/01/23 01:33:55;;;;;;;8.57;5.50;;;;;;;;;;6340272;28;20514;-80
2024/01/23 01:36:55;;;;;;;7.97;5.40;;;;;;;;;;6339166;28;20384;-82
2024/01/23 01:39:55;;;;;;;7.23;5.33;;;;;;;;;;6339469;28;20023;-80
2024/01/23 01:42:56;;;;;;;10.07;5.63;;;;;;;;;;6340415;28;20498;-80
2024/01/23 01:46:02;;;;;;;9.10;5.67;;;;;;;;;;6339713;28;20031;-82
2024/01/23 01:49:03;;;;;;;8.10;5.75;;;;;;;;;;6307855;28;20476;-80
2024/01/23 01:52:03;;;;;;;7.57;5.43;;;;;;;;;;6343440;28;20031;-80
2024/01/23 01:55:05;;;;;;;8.07;5.43;;;;;;;;;;6345905;28;20028;-80
2024/01/23 01:58:05;;;;;;;7.95;5.72;;;;;;;;;;6333733;28;20031;-79
2024/01/23 02:01:05;;;;;;;7.70;5.73;;;;;;;;;;6342714;28;20069;-81
2024/01/23 02:04:06;;;;;;;8.53;5.20;;;;;;;;;;6331595;28;20031;-80
2024/01/23 02:07:06;;;;;;;8.80;5.63;;;;;;;;;;6336953;28;20056;-80
2024/01/23 02:10:06;;;;;;;9.37;5.80;;;;;;;;;;6327166;28;20051;-80
2024/01/23 02:13:07;;;;;;;8.93;5.33;;;;;;;;;;6343790;28;20046;-79
2024/01/23 02:16:07;;;;;;;8.87;5.47;;;;;;;;;;6332542;28;20032;-79
2024/01/23 02:19:10;;;;;;;8.37;6.13;;;;;;;;;;6335536;28;20019;-79
2024/01/23 02:22:10;;;;;;;9.10;5.97;;;;;;;;;;6343248;28;20027;-80
2024/01/23 02:25:10;;;;;;;8.13;5.60;;;;;;;;;;6343836;28;20020;-80
2024/01/23 02:28:11;;;;;;;9.23;5.87;;;;;;;;;;6345030;28;20066;-79
2024/01/23 02:31:11;;;;;;;8.37;6.07;;;;;;;;;;6343289;28;20019;-80
2024/01/23 02:34:11;;;;;;;9.17;5.17;;;;;;;;;;6345446;28;20112;-79
2024/01/23 02:37:11;;;;;;;10.70;6.03;;;;;;;;;;6343630;28;20114;-87
2024/01/23 02:40:12;;;;;;;8.77;6.20;;;;;;;;;;6330832;28;20032;-84
2024/01/23 02:43:12;;;;;;;9.67;6.07;;;;;;;;;;6344877;28;20026;-88
2024/01/23 02:46:12;;;;;;;7.83;5.90;;;;;;;;;;6347064;27;20524;-87
2024/01/23 02:49:13;;;;;;;10.53;5.83;;;;;;;;;;6331613;28;20368;-88
2024/01/23 02:52:13;;;;;;;8.83;5.83;;;;;;;;;;6341517;28;20081;-86
2024/01/23 02:55:13;;;;;;;9.13;6.27;;;;;;;;;;6331955;28;20388;-86
2024/01/23 02:58:15;;;;;;;11.40;6.17;;;;;;;;;;6344535;28;20027;-87
2024/01/23 03:01:15;;;;;;;9.85;6.20;;;;;;;;;;6333581;28;20026;-87
2024/01/23 03:04:16;;;;;;;13.10;6.77;;;;;;;;;;6327540;28;20048;-85
2024/01/23 03:07:17;;;;;;;10.73;6.97;;;;;;;;;;6339978;28;20047;-87
2024/01/23 03:10:17;;;;;;;10.43;6.47;;;;;;;;;;6343401;28;20383;-85
2024/01/23 03:13:18;;;;;;;10.70;7.27;;;;;;;;;;6343110;28;20027;-86
2024/01/23 03:16:18;;;;;;;10.00;6.68;;;;;;;;;;6344926;28;20020;-86
2024/01/23 03:19:19;;;;;;;10.97;7.07;;;;;;;;;;6331877;28;20084;-87
2024/01/23 03:22:19;;;;;;;9.47;6.60;;;;;;;;;;6344444;28;20031;-87
2024/01/23 03:25:19;;;;;;;9.93;6.63;;;;;;;;;;6344990;28;20592;-86
2024/01/23 03:28:20;;;;;;;9.57;6.80;;;;;;;;;;6329570;28;20055;-86
2024/01/23 03:31:20;;;;;;;11.47;7.63;;;;;;;;;;6342725;28;20028;-85
2024/01/23 03:34:21;;;;;;;10.00;6.73;;;;;;;;;;6344517;28;20505;-87
2024/01/23 03:37:21;;;;;;;10.53;6.90;;;;;;;;;;6341623;28;20035;-86
2024/01/23 03:40:21;;;;;;;11.83;7.43;;;;;;;;;;6344864;28;20023;-86
2024/01/23 03:43:23;;;;;;;10.93;7.43;;;;;;;;;;6321254;28;20031;-86
2024/01/23 03:46:23;;;;;;;10.68;7.25;;;;;;;;;;6344678;28;20031;-80
2024/01/23 03:49:24;;;;;;;12.60;7.33;;;;;;;;;;6339665;28;20069;-80
2024/01/23 03:52:24;;;;;;;11.10;7.20;;;;;;;;;;6333679;28;20040;-80
2024/01/23 03:55:25;;;;;;;11.80;7.20;;;;;;;;;;6343614;28;20032;-80
2024/01/23 03:58:25;;;;;;;11.60;6.90;;;;;;;;;;6327695;28;20053;-78
2024/01/23 04:01:26;;;;;;;10.77;6.97;;;;;;;;;;6339886;28;20116;-80
2024/01/23 04:04:26;;;;;;;12.87;7.80;;;;;;;;;;6326338;28;20081;-82
2024/01/23 04:07:28;;;;;;;11.33;7.30;;;;;;;;;;6340837;28;20058;-80
2024/01/23 04:10:29;;;;;;;13.35;7.80;;;;;;;;;;6341418;28;20102;-81
2024/01/23 04:13:29;;;;;;;11.37;7.90;;;;;;;;;;6340669;28;20027;-80
2024/01/23 04:16:29;;;;;;;14.10;7.77;;;;;;;;;;6341762;28;20057;-80
2024/01/23 04:19:29;;;;;;;10.77;7.47;;;;;;;;;;6340802;28;20020;-80
2024/01/23 04:22:30;;;;;;;11.63;7.67;;;;;;;;;;6331433;28;20336;-80
2024/01/23 04:25:30;;;;;;;12.93;7.33;;;;;;;;;;6342697;28;20020;-80
2024/01/23 04:28:30;;;;;;;10.40;6.93;;;;;;;;;;6340342;28;20438;-80
2024/01/23 04:31:30;;;;;;;11.83;7.60;;;;;;;;;;6342835;28;20457;-80
2024/01/23 04:34:31;;;;;;;10.80;7.50;;;;;;;;;;6339962;28;20353;-80
2024/01/23 04:37:31;;;;;;;11.03;7.53;;;;;;;;;;6328340;28;20035;-80
2024/01/23 04:40:31;;;;;;;13.03;8.40;;;;;;;;;;6340827;28;20134;-80
2024/01/23 04:43:31;;;;;;;14.47;7.30;;;;;;;;;;6328768;28;20062;-80
2024/01/23 04:46:32;;;;;;;12.43;7.27;;;;;;;;;;6340119;28;20031;-80
2024/01/23 04:49:32;;;;;;;14.23;8.53;;;;;;;;;;6342795;28;20022;-81
2024/01/23 04:52:32;;;;;;;10.80;6.97;;;;;;;;;;6340281;28;20428;-81
2024/01/23 04:55:32;;;;;;;11.80;7.57;;;;;;;;;;6342671;28;20353;-88
2024/01/23 04:58:33;;;;;;;10.83;7.50;;;;;;;;;;6324618;28;20016;-88
2024/01/23 05:01:33;;;;;;;12.63;8.37;;;;;;;;;;6340826;28;20085;-88
2024/01/23 05:04:33;;;;;;;13.17;7.77;;;;;;;;;;6337789;28;20016;-87
2024/01/23 05:07:33;;;;;;;11.73;7.03;;;;;;;;;;6341654;28;20051;-88
2024/01/23 05:10:34;;;;;;;12.20;7.27;;;;;;;;;;6343806;28;20476;-88
2024/01/23 05:13:34;;;;;;;13.40;7.67;;;;;;;;;;6341630;28;20039;-87
2024/01/23 05:16:35;;;;;;;12.40;8.00;;;;;;;;;;6341403;28;20019;-89
2024/01/23 05:19:36;;;;;;;11.02;7.35;;;;;;;;;;6329391;28;20057;-88
2024/01/23 05:22:36;;;;;;;12.60;7.53;;;;;;;;;;6343362;28;20023;-88
2024/01/23 05:25:38;;;;;;;11.97;8.07;;;;;;;;;;6347419;28;20027;-88
2024/01/23 05:28:38;;;;;;;12.00;7.90;;;;;;;;;;6348761;28;20019;-88
2024/01/23 05:31:39;;;;;;;11.47;7.43;;;;;;;;;;6351610;28;20042;-88
2024/01/23 05:34:39;;;;;;;11.37;7.53;;;;;;;;;;6347945;28;20097;-88
2024/01/23 05:37:40;;;;;;;12.77;7.77;;;;;;;;;;6351644;28;20016;-89
2024/01/23 05:40:40;;;;;;;12.47;7.67;;;;;;;;;;6350067;28;20468;-88
2024/01/23 05:43:40;;;;;;;11.47;7.53;;;;;;;;;;6346800;28;20024;-87
2024/01/23 05:46:40;;;;;;;11.13;7.57;;;;;;;;;;6334078;28;20035;-86
2024/01/23 05:49:41;;;;;;;13.80;7.80;;;;;;;;;;6348550;28;20019;-85
2024/01/23 05:52:41;;;;;;;11.60;7.43;;;;;;;;;;6346322;28;20023;-87
2024/01/23 05:55:41;;;;;;;11.50;7.17;;;;;;;;;;6330441;28;20392;-86
2024/01/23 05:58:42;;;;;;;10.97;7.07;;;;;;;;;;6342267;28;20122;-86
2024/01/23 06:01:43;;;;;;;13.50;7.63;;;;;;;;;;6346648;28;20031;-85
2024/01/23 06:04:43;;;;;;;11.37;7.03;;;;;;;;;;6346455;28;20036;-85
2024/01/23 06:07:49;;;;;;;10.00;6.53;;;;;;;;;;6345203;28;20795;-79
2024/01/23 06:10:49;;;;;;;9.82;6.32;;;;;;;;;;6340924;28;20027;-78
2024/01/23 06:13:49;;;;;;;8.43;5.60;;;;;;;;;;6341903;28;20503;-77
2024/01/23 06:16:50;;;;;;;7.53;5.17;;;;;;;;;;6341767;28;20072;-79
2024/01/23 06:19:50;;;;;;;6.60;4.33;;;;;;;;;;6345018;28;20024;-79
2024/01/23 06:22:51;;;;;;;6.53;3.80;;;;;;;;;;6345027;28;20093;-77
2024/01/23 06:25:51;;;;;;;5.57;3.50;;;;;;;;;;6331778;28;20027;-78
2024/01/23 06:28:51;;;;;;;4.93;2.90;;;;;;;;;;6339929;28;20053;-79
2024/01/23 06:31:51;;;;;;;3.30;2.30;;;;;;;;;;6343449;28;20468;-80
2024/01/23 06:34:52;;;;;;;3.10;1.83;;;;;;;;;;6339042;28;20232;-81
2024/01/23 06:37:52;;;;;;;3.30;1.80;;;;;;;;;;6331194;28;20063;-81
2024/01/23 06:40:53;;;;;;;2.63;1.40;;;;;;;;;;6344119;28;20050;-81
2024/01/23 06:43:53;;;;;;;1.70;1.10;;;;;;;;;;6349054;27;20479;-81
2024/01/23 06:46:54;;;;;;;2.23;1.40;;;;;;;;;;6326777;28;20031;-80
2024/01/23 06:49:54;;;;;;;1.20;1.07;;;;;;;;;;6341343;28;20043;-81
2024/01/23 06:52:54;;;;;;;3.20;0.97;;;;;;;;;;6322303;28;20035;-81
2024/01/23 06:55:54;;;;;;;1.00;0.80;;;;;;;;;;6342023;28;20034;-84
2024/01/23 06:58:55;;;;;;;1.33;0.93;;;;;;;;;;6328706;28;20020;-79
2024/01/23 07:01:55;;;;;;;1.53;0.90;;;;;;;;;;6343053;28;20023;-80
2024/01/23 07:04:55;;;;;;;1.63;0.90;;;;;;;;;;6334684;28;20084;-80
2024/01/23 07:07:56;;;;;;;2.47;1.00;;;;;;;;;;6340789;28;20044;-81
2024/01/23 07:10:56;;;;;;;2.63;1.00;;;;;;;;;;6342150;28;20035;-80
2024/01/23 07:13:56;;;;;;;1.07;0.80;;;;;;;;;;6340594;28;20027;-82
2024/01/23 07:16:56;;;;;;;1.87;0.90;;;;;;;;;;6342954;28;20464;-80
2024/01/23 07:19:58;;;;;;;0.40;0.40;;;;;;;;;;6338030;28;20459;-79
2024/01/23 07:22:58;;;;;;;0.85;0.70;;;;;;;;;;6329795;28;20035;-81
2024/01/23 07:25:59;;;;;;;1.30;0.80;;;;;;;;;;6340800;28;20065;-79
2024/01/23 07:28:59;;;;;;;1.37;1.00;;;;;;;;;;6342050;28;20445;-79
2024/01/23 07:31:59;;;;;;;1.03;0.80;;;;;;;;;;6342895;28;20337;-79
2024/01/23 07:35:00;;;;;;;1.37;0.90;;;;;;;;;;6340630;28;20460;-79
2024/01/23 07:38:00;;;;;;;2.20;1.20;;;;;;;;;;6343143;28;20016;-80
2024/01/23 07:41:00;;;;;;;4.03;1.37;;;;;;;;;;6340581;28;20050;-79
2024/01/23 07:44:00;;;;;;;2.57;1.00;;;;;;;;;;6328481;28;20479;-79
2024/01/23 07:47:01;;;;;;;2.03;1.00;;;;;;;;;;6340878;28;20024;-80
2024/01/23 07:50:01;;;;;;;1.73;0.87;;;;;;;;;;6340081;28;20016;-79
2024/01/23 07:53:01;;;;;;;0.70;0.70;;;;;;;;;;6322609;28;20031;-82
2024/01/23 07:56:02;;;;;;;1.10;0.70;;;;;;;;;;6329202;28;20024;-79
2024/01/23 07:59:02;;;;;;;0.70;0.40;;;;;;;;;;6339069;28;20058;-79
2024/01/23 08:02:02;;;;;;;0.80;0.40;;;;;;;;;;6332146;28;20028;-79
2024/01/23 08:05:03;;;;;;;0.30;0.30;;;;;;;;;;6341784;28;20061;-78
2024/01/23 08:08:03;;;;;;;0.60;0.50;;;;;;;;;;6316086;28;20059;-81
2024/01/23 08:11:03;;;;;;;0.80;0.40;;;;;;;;;;6306743;28;20016;-78
2024/01/23 08:14:04;;;;;;;0.53;0.50;;;;;;;;;;6320850;28;20031;-79
2024/01/23 08:17:04;;;;;;;0.70;0.57;;;;;;;;;;6304924;28;20027;-79
2024/01/23 08:20:08;;;;;;;0.43;0.43;;;;;;;;;;6313015;28;20039;-80
2024/01/23 08:23:08;;;;;;;0.70;0.43;;;;;;;;;;6309036;28;20035;-82
2024/01/23 08:26:09;;;;;;;0.60;0.50;;;;;;;;;;6315454;28;20028;-80
2024/01/23 08:29:09;;;;;;;0.50;0.50;;;;;;;;;;6311417;28;20028;-79
2024/01/23 08:32:10;;;;;;;0.40;0.40;;;;;;;;;;6297728;28;20389;-79
2024/01/23 08:35:10;;;;;;;0.70;0.40;;;;;;;;;;6305719;28;20017;-77
2024/01/23 08:38:11;;;;;;;0.57;0.40;;;;;;;;;;6311696;28;20029;-76
2024/01/23 08:41:11;;;;;;;0.50;0.40;;;;;;;;;;6311599;28;20028;-77
2024/01/23 08:44:11;;;;;;;0.37;0.33;;;;;;;;;;6307477;28;20385;-77
2024/01/23 08:47:12;;;;;;;0.57;0.47;;;;;;;;;;6309756;28;20032;-77
2024/01/23 08:50:12;;;;;;;0.30;0.30;;;;;;;;;;6317330;28;20410;-78
2024/01/23 08:53:12;;;;;;;0.70;0.43;;;;;;;;;;6319502;28;20039;-76
2024/01/23 08:56:12;;;;;;;1.03;0.40;;;;;;;;;;6314951;28;20020;-76
2024/01/23 08:59:13;;;;;;;0.30;0.30;;;;;;;;;;6319159;28;20069;-76
2024/01/23 09:02:14;;;;;;;0.40;0.20;;;;;;;;;;6316325;28;20052;-77
2024/01/23 09:05:14;;;;;;;0.97;0.30;;;;;;;;;;6313650;28;20389;-76
2024/01/23 09:08:15;;;;;;;0.40;0.40;;;;;;;;;;6333584;28;20321;-76
2024/01/23 09:11:16;;;;;;;1.03;0.40;;;;;;;;;;6337437;28;20358;-77
2024/01/23 09:14:16;;;;;;;1.27;0.95;;;;;;;;;;6341311;28;20031;-77
2024/01/23 09:17:17;;;;;;;1.87;1.17;;;;;;;;;;6341164;28;20031;-78
2024/01/23 09:20:17;;;;;;;4.00;1.03;;;;;;;;;;6330745;28;20035;-78
2024/01/23 09:23:17;;;;;;;1.77;0.97;;;;;;;;;;6337551;28;20536;-78
2024/01/23 09:26:17;;;;;;;0.73;0.63;;;;;;;;;;6341656;28;20103;-78
2024/01/23 09:29:18;;;;;;;0.97;0.50;;;;;;;;;;6322605;28;20476;-77
2024/01/23 09:32:18;;;;;;;0.77;0.40;;;;;;;;;;6346276;28;20028;-78
2024/01/23 09:35:18;;;;;;;0.77;0.50;;;;;;;;;;6338738;28;20024;-78
2024/01/23 09:38:18;;;;;;;0.57;0.30;;;;;;;;;;6336150;28;20020;-78
2024/01/23 09:41:19;;;;;;;0.40;0.20;;;;;;;;;;6336368;28;20357;-77
2024/01/23 09:44:20;;;;;;;0.23;0.23;;;;;;;;;;6337441;28;20024;-79
2024/01/23 09:47:20;;;;;;;0.28;0.20;;;;;;;;;;6336967;28;20019;-77
2024/01/23 09:50:24;;;;;;;0.53;0.30;;;;;;;;;;6341260;28;20389;-78
2024/01/23 09:53:25;;;;;;;1.00;0.32;;;;;;;;;;6337495;28;20032;-78
2024/01/23 09:56:25;;;;;;;0.50;0.28;;;;;;;;;;6334204;28;20020;-77
2024/01/23 09:59:25;;;;;;;0.43;0.30;;;;;;;;;;6319602;28;20062;-78
2024/01/23 10:02:26;;;;;;;0.30;0.30;;;;;;;;;;6335462;28;20016;-78
2024/01/23 10:05:27;;;;;;;0.30;0.20;;;;;;;;;;6339916;28;20356;-78
2024/01/23 10:08:27;;;;;;;0.67;0.30;;;;;;;;;;6342257;28;20495;-78
2024/01/23 10:11:28;;;;;;;0.53;0.30;;;;;;;;;;6339158;28;20023;-78
2024/01/23 10:14:28;;;;;;;0.88;0.30;;;;;;;;;;6348793;28;20383;-78
2024/01/23 10:17:29;;;;;;;0.50;0.30;;;;;;;;;;6334901;28;20047;-78
2024/01/23 10:20:30;;;;;;;0.50;0.30;;;;;;;;;;6333713;28;20030;-78
2024/01/23 10:23:32;;;;;;;0.28;0.20;;;;;;;;;;6332627;28;20474;-78
2024/01/23 10:26:32;;;;;;;0.25;0.20;;;;;;;;;;6340850;28;20020;-78
2024/01/23 10:29:34;;;;;;;0.70;0.30;;;;;;;;;;6340933;28;20076;-79
2024/01/23 10:32:36;;;;;;;0.88;0.28;;;;;;;;;;6345746;28;20503;-78
2024/01/23 10:35:36;;;;;;;1.63;0.30;;;;;;;;;;6332608;28;20023;-78
2024/01/23 10:38:37;;;;;;;1.73;0.80;;;;;;;;;;6331920;28;20030;-78
2024/01/23 10:41:39;;;;;;;0.97;0.60;;;;;;;;;;6343078;28;20092;-78
2024/01/23 10:44:40;;;;;;;1.38;0.50;;;;;;;;;;6345393;28;20020;-78
2024/01/23 10:47:40;;;;;;;0.85;0.40;;;;;;;;;;6329781;28;20084;-78
2024/01/23 10:50:40;;;;;;;0.50;0.30;;;;;;;;;;6342125;28;20027;-79
2024/01/23 10:53:47;;;;;;;0.83;0.37;;;;;;;;;;6335138;28;20028;-80
2024/01/23 10:56:48;;;;;;;0.60;0.32;;;;;;;;;;6326988;28;20015;-78
2024/01/23 10:59:48;;;;;;;0.98;0.40;;;;;;;;;;6350147;28;20109;-78
2024/01/23 11:02:53;;;;;;;1.23;0.30;;;;;;;;;;6345079;28;20493;-77
2024/01/23 11:06:01;;;;;;;0.32;0.20;;;;;;;;;;6340389;28;20047;-77
2024/01/23 11:09:27;;;;;;;0.55;0.30;;;;;;;;;;6345802;28;20035;-77
2024/01/23 11:12:36;;;;;;;1.30;0.20;;;;;;;;;;6301102;28;20058;-77
2024/01/23 11:15:36;;;;;;;0.57;0.20;;;;;;;;;;6344436;28;20028;-78
2024/01/23 11:18:36;;;;;;;0.10;0.10;;;;;;;;;;6342960;28;20081;-77
2024/01/23 11:21:37;;;;;;;0.40;0.30;;;;;;;;;;6333107;28;20024;-77
2024/01/23 11:24:38;;;;;;;0.30;0.30;;;;;;;;;;6332919;28;20142;-78
2024/01/23 11:27:41;;;;;;;0.60;0.30;;;;;;;;;;6315734;28;20035;-77
2024/01/23 11:31:02;;;;;;;0.95;0.30;;;;;;;;;;6325911;28;20015;-77
2024/01/23 11:34:21;;;;;;;2.80;1.05;;;;;;;;;;6312479;28;20040;-78
2024/01/23 11:37:41;;;;;;;1.45;0.90;;;;;;;;;;6345850;28;20019;-79
2024/01/23 11:40:42;;;;;;;1.35;0.70;;;;;;;;;;6344113;28;20023;-78
2024/01/23 11:43:43;;;;;;;1.30;0.55;;;;;;;;;;6346864;28;20494;-80
2024/01/23 11:46:47;;;;;;;0.50;0.40;;;;;;;;;;6327072;28;20388;-79
2024/01/23 11:49:49;;;;;;;0.40;0.30;;;;;;;;;;6341733;28;20491;-79
2024/01/23 11:52:51;;;;;;;0.97;0.30;;;;;;;;;;6342958;28;20030;-78
2024/01/23 11:55:52;;;;;;;0.77;0.40;;;;;;;;;;6340194;28;20024;-78
2024/01/23 11:58:53;;;;;;;0.83;0.40;;;;;;;;;;6322165;28;20482;-78
2024/01/23 12:01:53;;;;;;;0.63;0.30;;;;;;;;;;6348405;28;20269;-79
2024/01/23 12:04:53;;;;;;;1.23;0.33;;;;;;;;;;6341323;28;20106;-82
2024/01/23 12:07:54;;;;;;;0.30;0.20;;;;;;;;;;6346791;28;20048;-80
2024/01/23 12:10:55;;;;;;;0.50;0.27;;;;;;;;;;6343655;28;20031;-80
2024/01/23 12:13:55;;;;;;;0.40;0.20;;;;;;;;;;6332409;28;20085;-79
2024/01/23 12:17:04;;;;;;;0.30;0.30;;;;;;;;;;6348528;28;20035;-81
2024/01/23 12:20:05;;;;;;;0.30;0.20;;;;;;;;;;6341677;28;20460;-79
2024/01/23 12:23:05;;;;;;;0.60;0.20;;;;;;;;;;6349449;28;20449;-79
2024/01/23 12:26:06;;;;;;;0.20;0.10;;;;;;;;;;6345780;28;20028;-79
2024/01/23 12:29:06;;;;;;;0.20;0.20;;;;;;;;;;6334352;28;20029;-79
2024/01/23 12:32:09;;;;;;;0.40;0.30;;;;;;;;;;6341238;28;20103;-80
2024/01/23 12:35:12;;;;;;;0.28;0.20;;;;;;;;;;6329344;28;20031;-79
2024/01/23 12:38:16;;;;;;;0.77;0.40;;;;;;;;;;6324316;28;20020;-79
2024/01/23 12:41:17;;;;;;;0.40;0.20;;;;;;;;;;6331503;28;20109;-82
2024/01/23 12:44:18;;;;;;;0.22;0.20;;;;;;;;;;6347379;28;20114;-81
2024/01/23 12:47:18;;;;;;;0.23;0.20;;;;;;;;;;6340452;28;20050;-79
2024/01/23 12:50:20;;;;;;;1.23;0.20;;;;;;;;;;6342461;28;20081;-81
2024/01/23 12:53:23;;;;;;;0.15;0.15;;;;;;;;;;6333035;27;20038;-80
2024/01/23 12:56:23;;;;;;;1.35;0.80;;;;;;;;;;6346278;27;20035;-81
2024/01/23 12:59:26;;;;;;;1.63;1.00;;;;;;;;;;6339111;28;20062;-81
2024/01/23 13:02:26;;;;;;;1.10;0.90;;;;;;;;;;6345139;28;20106;-80
2024/01/23 13:05:26;;;;;;;0.50;0.50;;;;;;;;;;6336991;28;20041;-80
2024/01/23 13:08:27;;;;;;;1.00;0.50;;;;;;;;;;6338685;28;20504;-81
2024/01/23 13:11:27;;;;;;;0.37;0.30;;;;;;;;;;6338079;28;20085;-81
2024/01/23 13:14:29;;;;;;;0.73;0.40;;;;;;;;;;6347691;28;20076;-80
2024/01/23 13:17:29;;;;;;;0.70;0.38;;;;;;;;;;6334691;28;20024;-81
2024/01/23 13:20:30;;;;;;;0.50;0.27;;;;;;;;;;6336712;28;20053;-80
2024/01/23 13:23:31;;;;;;;0.50;0.30;;;;;;;;;;6345710;28;20049;-79
2024/01/23 13:26:31;;;;;;;0.70;0.30;;;;;;;;;;6342070;28;20043;-79
2024/01/23 13:29:33;;;;;;;0.67;0.20;;;;;;;;;;6341078;28;20039;-79
2024/01/23 13:32:33;;;;;;;1.25;0.35;;;;;;;;;;6315904;28;20369;-79
2024/01/23 13:35:33;;;;;;;0.90;0.37;;;;;;;;;;6329285;28;20020;-79
2024/01/23 13:38:33;;;;;;;0.87;0.37;;;;;;;;;;6337998;28;20539;-81
2024/01/23 13:41:34;;;;;;;0.80;0.30;;;;;;;;;;6328590;28;20556;-79
2024/01/23 13:44:34;;;;;;;0.40;0.27;;;;;;;;;;6338717;28;20412;-79
2024/01/23 13:47:35;;;;;;;0.60;0.30;;;;;;;;;;6337447;28;20447;-80
2024/01/23 13:50:35;;;;;;;3.00;0.30;;;;;;;;;;6317736;28;20353;-80
2024/01/23 13:53:36;;;;;;;0.47;0.30;;;;;;;;;;6336269;28;20059;-80
2024/01/23 13:56:36;;;;;;;0.90;0.40;;;;;;;;;;6343168;28;20015;-80
2024/01/23 13:59:37;;;;;;;1.00;0.30;;;;;;;;;;6345219;28;20487;-81
2024/01/23 14:02:40;;;;;;;1.37;0.30;;;;;;;;;;6347360;28;20077;-80
2024/01/23 14:05:40;;;;;;;0.55;0.20;;;;;;;;;;6344624;28;20019;-80
2024/01/23 14:08:42;;;;;;;0.73;0.40;;;;;;;;;;6345385;28;20016;-81
2024/01/23 14:11:42;;;;;;;0.47;0.20;;;;;;;;;;6347080;28;20090;-81
2024/01/23 14:14:42;;;;;;;1.23;0.43;;;;;;;;;;6350898;28;20045;-81
2024/01/23 14:17:43;;;;;;;0.40;0.30;;;;;;;;;;6341601;28;20105;-81
2024/01/23 14:20:43;;;;;;;1.17;0.30;;;;;;;;;;6348053;28;20012;-81
2024/01/23 14:23:43;;;;;;;0.77;0.20;;;;;;;;;;6340404;28;20027;-81
2024/01/23 14:26:43;;;;;;;0.50;0.20;;;;;;;;;;6347692;28;20098;-85
2024/01/23 14:29:44;;;;;;;0.50;0.30;;;;;;;;;;6350586;28;20016;-88
2024/01/23 14:32:44;;;;;;;0.30;0.27;;;;;;;;;;6340574;28;20473;-88
2024/01/23 14:35:44;;;;;;;0.40;0.20;;;;;;;;;;6332061;28;20019;-89
2024/01/23 14:38:45;;;;;;;0.37;0.27;;;;;;;;;;6329519;28;20460;-88
2024/01/23 14:41:45;;;;;;;0.37;0.27;;;;;;;;;;6343163;28;20019;-88
2024/01/23 14:44:46;;;;;;;0.37;0.30;;;;;;;;;;6343440;28;20054;-88
2024/01/23 14:47:46;;;;;;;1.27;0.47;;;;;;;;;;6341639;28;20341;-88
2024/01/23 14:50:46;;;;;;;1.17;0.60;;;;;;;;;;6325647;28;20417;-89
2024/01/23 14:53:47;;;;;;;1.40;0.60;;;;;;;;;;6345625;28;20031;-88
2024/01/23 14:56:47;;;;;;;1.47;0.73;;;;;;;;;;6336171;28;20020;-87
2024/01/23 14:59:47;;;;;;;1.40;0.60;;;;;;;;;;6346309;28;20496;-89
2024/01/23 15:02:47;;;;;;;0.63;0.33;;;;;;;;;;6345065;28;20028;-88
2024/01/23 15:05:48;;;;;;;0.30;0.30;;;;;;;;;;6329425;28;20024;-87
2024/01/23 15:08:48;;;;;;;0.33;0.20;;;;;;;;;;6336485;28;20026;-89
2024/01/23 15:11:48;;;;;;;0.67;0.40;;;;;;;;;;6337152;28;20046;-88
2024/01/23 15:14:49;;;;;;;0.63;0.30;;;;;;;;;;6340337;28;20031;-89
2024/01/23 15:17:49;;;;;;;0.77;0.25;;;;;;;;;;6327555;28;20039;-88
2024/01/23 15:20:50;;;;;;;1.27;0.30;;;;;;;;;;6342593;28;20031;-89
2024/01/23 15:23:50;;;;;;;0.70;0.20;;;;;;;;;;6344110;28;20019;-88
2024/01/23 15:26:50;;;;;;;0.20;0.20;;;;;;;;;;6347815;28;20020;-89
2024/01/23 15:29:51;;;;;;;1.03;0.30;;;;;;;;;;6346921;28;20065;-88
2024/01/23 15:32:51;;;;;;;0.83;0.23;;;;;;;;;;6344117;28;20023;-89
2024/01/23 15:35:51;;;;;;;1.93;0.53;;;;;;;;;;6345660;28;20027;-84
2024/01/23 15:38:52;;;;;;;0.93;0.30;;;;;;;;;;6338524;28;20031;-84
2024/01/23 15:41:55;;;;;;;0.40;0.30;;;;;;;;;;6340839;28;20024;-84
2024/01/23 15:44:55;;;;;;;1.42;0.40;;;;;;;;;;6346816;28;20027;-82
2024/01/23 15:47:55;;;;;;;1.57;0.50;;;;;;;;;;6338073;28;20051;-82
2024/01/23 15:50:56;;;;;;;2.43;0.50;;;;;;;;;;6337841;28;20016;-83
2024/01/23 15:53:58;;;;;;;1.17;0.40;;;;;;;;;;6338709;28;20016;-83
2024/01/23 15:56:58;;;;;;;1.10;0.40;;;;;;;;;;6348156;28;20622;-82
2024/01/23 15:59:58;;;;;;;1.20;0.50;;;;;;;;;;6339364;28;20043;-83
2024/01/23 16:02:59;;;;;;;0.47;0.33;;;;;;;;;;6335921;28;20432;-84
2024/01/23 16:05:59;;;;;;;0.70;0.30;;;;;;;;;;6347441;28;20690;-82
2024/01/23 16:08:59;;;;;;;1.47;0.30;;;;;;;;;;6340802;28;20016;-83
2024/01/23 16:11:59;;;;;;;0.50;0.20;;;;;;;;;;6341020;28;20517;-83
2024/01/23 16:14:59;;;;;;;0.87;0.40;;;;;;;;;;6338456;28;20402;-83
2024/01/23 16:18:00;;;;;;;0.97;0.47;;;;;;;;;;6339599;28;20402;-83
2024/01/23 16:21:00;;;;;;;0.80;0.60;;;;;;;;;;6342590;28;20384;-83
2024/01/23 16:24:00;;;;;;;0.93;0.47;;;;;;;;;;6336384;28;20563;-83
2024/01/23 16:27:02;;;;;;;1.53;0.57;;;;;;;;;;6335456;28;20027;-82
2024/01/23 16:30:04;;;;;;;3.15;0.50;;;;;;;;;;6342423;28;20028;-82
2024/01/23 16:33:06;;;;;;;0.45;0.38;;;;;;;;;;6344994;28;20024;-82
2024/01/23 16:36:06;;;;;;;;;;;;;;;;;;6332223;28;20384;-83
2024/01/23 16:39:08;;;;;;;2.80;0.40;;;;;;;;;;6337821;28;19911;-82
2024/01/23 16:42:08;;;;;;;1.98;0.30;;;;;;;;;;6322905;28;20026;-83
2024/01/23 16:45:09;;;;;;;0.87;0.30;;;;;;;;;;6336464;28;20028;-82
2024/01/23 16:48:09;;;;;;;0.30;0.20;;;;;;;;;;6326216;28;20023;-82
2024/01/23 16:51:09;;;;;;;1.20;0.57;;;;;;;;;;6336476;28;20102;-82
2024/01/23 16:54:12;;;;;;;0.93;0.40;;;;;;;;;;6337563;28;20055;-83
2024/01/23 16:57:13;;;;;;;0.90;0.40;;;;;;;;;;6346894;28;20065;-82
2024/01/23 17:00:15;;;;;;;0.60;0.33;;;;;;;;;;6339476;28;20027;-81
2024/01/23 17:03:15;;;;;;;0.65;0.45;;;;;;;;;;6329076;28;20059;-82
2024/01/23 17:06:15;;;;;;;1.70;0.37;;;;;;;;;;6336832;28;20407;-82
2024/01/23 17:09:15;;;;;;;1.03;0.50;;;;;;;;;;6332403;28;20173;-83
2024/01/23 17:12:16;;;;;;;1.97;0.77;;;;;;;;;;6334056;28;20023;-83
2024/01/23 17:15:17;;;;;;;1.65;0.70;;;;;;;;;;6331035;28;20030;-83
2024/01/23 17:18:17;;;;;;;1.47;0.80;;;;;;;;;;6322522;28;20032;-82
2024/01/23 17:21:17;;;;;;;0.97;0.40;;;;;;;;;;6340215;28;20106;-82
2024/01/23 17:24:17;;;;;;;1.97;0.60;;;;;;;;;;6339929;28;20492;-82
2024/01/23 17:27:18;;;;;;;1.50;0.60;;;;;;;;;;6343145;28;20028;-82
2024/01/23 17:30:18;;;;;;;0.50;0.40;;;;;;;;;;6331916;28;20020;-83
2024/01/23 17:33:18;;;;;;;0.80;0.57;;;;;;;;;;6332005;28;20015;-81
2024/01/23 17:36:18;;;;;;;2.30;0.73;;;;;;;;;;6336750;28;20028;-83
2024/01/23 17:39:19;;;;;;;2.87;0.70;;;;;;;;;;6332202;28;20028;-81
2024/01/23 17:42:19;;;;;;;0.97;0.50;;;;;;;;;;6337353;28;20027;-82
2024/01/23 17:45:19;;;;;;;0.80;0.60;;;;;;;;;;6337918;28;20100;-82
2024/01/23 17:48:21;;;;;;;2.70;1.00;;;;;;;;;;6337654;28;20059;-81
2024/01/23 17:51:21;;;;;;;;;;;;;;;;;;6338962;28;20031;-80
2024/01/23 17:54:21;;;;;;;2.60;0.80;;;;;;;;;;6338881;28;19912;-80
2024/01/23 17:57:21;;;;;;;1.63;0.73;;;;;;;;;;6335771;28;20084;-88
2024/01/23 18:00:28;;;;;;;1.03;0.53;;;;;;;;;;6322803;28;20027;-86